sensor_id;sensor_type;location;lat;lon;timestamp;P1;durP1;ratioP1;P2;durP2;ratioP2
10440;SDS011;5268;49.346;9.522;2022-11-20T04:22:05;16.70;;;10.60;;
10440;SDS011;5268;49.346;9.522;2022-11-20T04:27:08;20.27;;;11.57;;
10440;SDS011;5268;49.346;9.522;2022-11-20T04:32:10;20.95;;;11.82;;
10440;SDS011;5268;49.346;9.522;2022-11-20T04:37:13;21.35;;;11.35;;
10440;SDS011;5268;49.346;9.522;2022-11-20T04:42:15;19.75;;;11.07;;
10440;SDS011;5268;49.346;9.522;2022-11-20T04:47:30;23.77;;;11.32;;
10440;SDS011;5268;49.346;9.522;2022-11-20T04:52:33;15.82;;;10.52;;
10440;SDS011;5268;49.346;9.522;2022-11-20T04:57:35;16.60;;;10.02;;
10440;SDS011;5268;49.346;9.522;2022-11-20T05:02:37;19.15;;;10.60;;
10440;SDS011;5268;49.346;9.522;2022-11-20T05:07:40;16.92;;;10.25;;
10440;SDS011;5268;49.346;9.522;2022-11-20T05:12:42;16.38;;;10.18;;
10440;SDS011;5268;49.346;9.522;2022-11-20T05:17:46;14.85;;;9.55;;
10440;SDS011;5268;49.346;9.522;2022-11-20T05:22:50;14.32;;;9.82;;
10440;SDS011;5268;49.346;9.522;2022-11-20T05:27:52;15.07;;;9.60;;
10440;SDS011;5268;49.346;9.522;2022-11-20T05:32:55;14.13;;;9.00;;
10440;SDS011;5268;49.346;9.522;2022-11-20T05:38:07;12.82;;;8.82;;
10440;SDS011;5268;49.346;9.522;2022-11-20T05:43:31;21.95;;;13.73;;
10440;SDS011;5268;49.346;9.522;2022-11-20T05:48:36;12.88;;;8.90;;
10440;SDS011;5268;49.346;9.522;2022-11-20T05:53:43;10.50;;;7.43;;
10440;SDS011;5268;49.346;9.522;2022-11-20T05:58:46;10.82;;;7.75;;
10440;SDS011;5268;49.346;9.522;2022-11-20T06:09:53;11.35;;;7.30;;
10440;SDS011;5268;49.346;9.522;2022-11-20T06:14:57;15.25;;;8.75;;
10440;SDS011;5268;49.346;9.522;2022-11-20T06:20:06;16.02;;;10.70;;
10440;SDS011;5268;49.346;9.522;2022-11-20T06:25:13;11.05;;;7.25;;
10440;SDS011;5268;49.346;9.522;2022-11-20T06:30:15;10.15;;;6.75;;
10440;SDS011;5268;49.346;9.522;2022-11-20T06:35:17;12.93;;;9.00;;
10440;SDS011;5268;49.346;9.522;2022-11-20T06:40:21;14.18;;;8.20;;
10440;SDS011;5268;49.346;9.522;2022-11-20T06:45:23;8.80;;;6.60;;
10440;SDS011;5268;49.346;9.522;2022-11-20T06:50:25;9.98;;;6.63;;
10440;SDS011;5268;49.346;9.522;2022-11-20T06:55:28;6.78;;;5.10;;
10440;SDS011;5268;49.346;9.522;2022-11-20T07:00:32;5.43;;;3.95;;
10440;SDS011;5268;49.346;9.522;2022-11-20T07:10:58;5.93;;;3.67;;
10440;SDS011;5268;49.346;9.522;2022-11-20T07:16:07;7.88;;;5.25;;
10440;SDS011;5268;49.346;9.522;2022-11-20T07:21:23;7.57;;;5.78;;
10440;SDS011;5268;49.346;9.522;2022-11-20T07:26:27;5.40;;;4.15;;
10440;SDS011;5268;49.346;9.522;2022-11-20T07:31:31;5.70;;;4.47;;
10440;SDS011;5268;49.346;9.522;2022-11-20T07:36:34;4.97;;;4.22;;
10440;SDS011;5268;49.346;9.522;2022-11-20T07:41:37;5.15;;;4.10;;
10440;SDS011;5268;49.346;9.522;2022-11-20T07:46:40;4.63;;;3.95;;
10440;SDS011;5268;49.346;9.522;2022-11-20T07:51:42;6.78;;;4.43;;
10440;SDS011;5268;49.346;9.522;2022-11-20T07:56:46;5.30;;;4.78;;
10440;SDS011;5268;49.346;9.522;2022-11-20T08:01:48;6.03;;;5.00;;
10440;SDS011;5268;49.346;9.522;2022-11-20T08:06:51;7.88;;;6.53;;
10440;SDS011;5268;49.346;9.522;2022-11-20T08:11:55;10.00;;;6.25;;
10440;SDS011;5268;49.346;9.522;2022-11-20T08:17:14;11.10;;;9.52;;
10440;SDS011;5268;49.346;9.522;2022-11-20T08:22:16;8.02;;;7.22;;
10440;SDS011;5268;49.346;9.522;2022-11-20T08:27:20;10.00;;;7.38;;
10440;SDS011;5268;49.346;9.522;2022-11-20T08:32:22;7.97;;;6.97;;
10440;SDS011;5268;49.346;9.522;2022-11-20T08:37:24;7.90;;;6.38;;
10440;SDS011;5268;49.346;9.522;2022-11-20T08:42:28;7.38;;;5.57;;
10440;SDS011;5268;49.346;9.522;2022-11-20T08:47:30;6.95;;;6.10;;
10440;SDS011;5268;49.346;9.522;2022-11-20T08:52:32;8.25;;;7.50;;
10440;SDS011;5268;49.346;9.522;2022-11-20T08:57:35;5.28;;;4.78;;
10440;SDS011;5268;49.346;9.522;2022-11-20T09:02:39;6.53;;;4.82;;
10440;SDS011;5268;49.346;9.522;2022-11-20T09:07:41;15.50;;;11.50;;
10440;SDS011;5268;49.346;9.522;2022-11-20T09:12:45;5.57;;;4.55;;
10440;SDS011;5268;49.346;9.522;2022-11-20T09:17:51;7.40;;;5.28;;
10440;SDS011;5268;49.346;9.522;2022-11-20T09:22:53;4.43;;;3.83;;
10440;SDS011;5268;49.346;9.522;2022-11-20T09:27:57;4.78;;;3.92;;
10440;SDS011;5268;49.346;9.522;2022-11-20T09:33:00;5.75;;;3.90;;
10440;SDS011;5268;49.346;9.522;2022-11-20T09:38:05;5.45;;;4.50;;
10440;SDS011;5268;49.346;9.522;2022-11-20T09:43:12;5.00;;;4.38;;
10440;SDS011;5268;49.346;9.522;2022-11-20T09:48:26;4.65;;;3.95;;
10440;SDS011;5268;49.346;9.522;2022-11-20T09:53:41;6.72;;;4.50;;
10440;SDS011;5268;49.346;9.522;2022-11-20T09:58:54;4.80;;;4.07;;
10440;SDS011;5268;49.346;9.522;2022-11-20T10:04:01;3.38;;;3.08;;
10440;SDS011;5268;49.346;9.522;2022-11-20T10:09:13;3.22;;;2.90;;
10440;SDS011;5268;49.346;9.522;2022-11-20T10:14:26;3.47;;;3.10;;
10440;SDS011;5268;49.346;9.522;2022-11-20T10:19:41;4.05;;;3.53;;
10440;SDS011;5268;49.346;9.522;2022-11-20T10:24:56;3.53;;;3.22;;
10440;SDS011;5268;49.346;9.522;2022-11-20T10:30:08;3.97;;;3.42;;
10440;SDS011;5268;49.346;9.522;2022-11-20T10:35:18;4.38;;;3.50;;
10440;SDS011;5268;49.346;9.522;2022-11-20T10:40:26;4.78;;;4.03;;
10440;SDS011;5268;49.346;9.522;2022-11-20T10:45:44;4.70;;;4.30;;
10440;SDS011;5268;49.346;9.522;2022-11-20T10:50:59;4.90;;;4.40;;
10440;SDS011;5268;49.346;9.522;2022-11-20T10:56:19;5.50;;;4.82;;
10440;SDS011;5268;49.346;9.522;2022-11-20T11:01:26;6.60;;;5.43;;
10440;SDS011;5268;49.346;9.522;2022-11-20T11:06:29;6.28;;;5.32;;
10440;SDS011;5268;49.346;9.522;2022-11-20T11:11:36;6.35;;;5.60;;
10440;SDS011;5268;49.346;9.522;2022-11-20T11:16:49;6.93;;;6.22;;
10440;SDS011;5268;49.346;9.522;2022-11-20T11:21:53;7.15;;;6.10;;
10440;SDS011;5268;49.346;9.522;2022-11-20T11:26:57;5.78;;;5.20;;
10440;SDS011;5268;49.346;9.522;2022-11-20T11:32:06;5.25;;;4.70;;
10440;SDS011;5268;49.346;9.522;2022-11-20T11:37:11;6.82;;;4.68;;
10440;SDS011;5268;49.346;9.522;2022-11-20T11:42:18;6.28;;;5.35;;
10440;SDS011;5268;49.346;9.522;2022-11-20T11:47:23;13.05;;;9.95;;
10440;SDS011;5268;49.346;9.522;2022-11-20T11:52:27;6.40;;;4.78;;
10440;SDS011;5268;49.346;9.522;2022-11-20T11:57:33;17.38;;;13.80;;
10440;SDS011;5268;49.346;9.522;2022-11-20T12:02:49;8.38;;;6.47;;
10440;SDS011;5268;49.346;9.522;2022-11-20T12:08:00;5.25;;;3.90;;
10440;SDS011;5268;49.346;9.522;2022-11-20T12:13:09;5.90;;;4.93;;
10440;SDS011;5268;49.346;9.522;2022-11-20T12:18:23;4.45;;;2.90;;
10440;SDS011;5268;49.346;9.522;2022-11-20T12:23:27;3.67;;;3.33;;
10440;SDS011;5268;49.346;9.522;2022-11-20T12:28:39;4.18;;;3.10;;
10440;SDS011;5268;49.346;9.522;2022-11-20T12:34:01;4.07;;;3.33;;
10440;SDS011;5268;49.346;9.522;2022-11-20T12:39:21;4.30;;;3.55;;
10440;SDS011;5268;49.346;9.522;2022-11-20T12:44:40;4.50;;;3.88;;
10440;SDS011;5268;49.346;9.522;2022-11-20T12:50:15;4.13;;;3.20;;
10440;SDS011;5268;49.346;9.522;2022-11-20T12:55:31;4.85;;;2.80;;
10440;SDS011;5268;49.346;9.522;2022-11-20T13:00:40;3.45;;;2.90;;
10440;SDS011;5268;49.346;9.522;2022-11-20T13:05:55;5.90;;;3.20;;
10440;SDS011;5268;49.346;9.522;2022-11-20T13:11:04;4.03;;;2.90;;
10440;SDS011;5268;49.346;9.522;2022-11-20T13:16:16;4.57;;;3.35;;
10440;SDS011;5268;49.346;9.522;2022-11-20T13:21:35;2.92;;;2.60;;
10440;SDS011;5268;49.346;9.522;2022-11-20T13:26:38;5.53;;;2.70;;
10440;SDS011;5268;49.346;9.522;2022-11-20T13:31:42;6.47;;;2.90;;
10440;SDS011;5268;49.346;9.522;2022-11-20T13:36:50;3.00;;;2.47;;
10440;SDS011;5268;49.346;9.522;2022-11-20T13:41:54;4.88;;;2.78;;
10440;SDS011;5268;49.346;9.522;2022-11-20T13:46:58;10.65;;;8.90;;
10440;SDS011;5268;49.346;9.522;2022-11-20T13:52:06;4.53;;;2.28;;
10440;SDS011;5268;49.346;9.522;2022-11-20T13:57:46;3.92;;;2.33;;
10440;SDS011;5268;49.346;9.522;2022-11-20T14:03:00;4.85;;;1.98;;
10440;SDS011;5268;49.346;9.522;2022-11-20T14:08:14;3.83;;;2.10;;
10440;SDS011;5268;49.346;9.522;2022-11-20T14:13:25;5.07;;;2.20;;
10440;SDS011;5268;49.346;9.522;2022-11-20T14:18:27;4.03;;;2.10;;
10440;SDS011;5268;49.346;9.522;2022-11-20T14:23:31;5.00;;;2.45;;
10440;SDS011;5268;49.346;9.522;2022-11-20T14:28:33;3.90;;;2.58;;
10440;SDS011;5268;49.346;9.522;2022-11-20T14:33:35;4.15;;;2.30;;
10440;SDS011;5268;49.346;9.522;2022-11-20T14:38:39;3.40;;;2.08;;
10440;SDS011;5268;49.346;9.522;2022-11-20T14:43:44;5.40;;;2.10;;
10440;SDS011;5268;49.346;9.522;2022-11-20T14:48:47;4.63;;;2.63;;
10440;SDS011;5268;49.346;9.522;2022-11-20T14:53:52;3.45;;;2.20;;
10440;SDS011;5268;49.346;9.522;2022-11-20T14:58:56;3.25;;;1.90;;
10440;SDS011;5268;49.346;9.522;2022-11-20T15:03:59;4.13;;;1.85;;
10440;SDS011;5268;49.346;9.522;2022-11-20T15:09:04;3.58;;;1.67;;
10440;SDS011;5268;49.346;9.522;2022-11-20T15:14:15;2.25;;;1.38;;
10440;SDS011;5268;49.346;9.522;2022-11-20T15:19:18;4.57;;;1.42;;
10440;SDS011;5268;49.346;9.522;2022-11-20T15:24:23;3.85;;;1.35;;
10440;SDS011;5268;49.346;9.522;2022-11-20T15:29:25;4.30;;;1.45;;
10440;SDS011;5268;49.346;9.522;2022-11-20T15:34:27;20.50;;;14.20;;
10440;SDS011;5268;49.346;9.522;2022-11-20T15:39:31;4.78;;;2.83;;
10440;SDS011;5268;49.346;9.522;2022-11-20T15:44:33;3.92;;;1.60;;
10440;SDS011;5268;49.346;9.522;2022-11-20T15:49:35;2.58;;;1.50;;
10440;SDS011;5268;49.346;9.522;2022-11-20T15:54:39;3.95;;;1.70;;
10440;SDS011;5268;49.346;9.522;2022-11-20T15:59:41;4.20;;;1.70;;
10440;SDS011;5268;49.346;9.522;2022-11-20T16:04:43;4.45;;;1.63;;
10440;SDS011;5268;49.346;9.522;2022-11-20T16:09:46;20.67;;;13.40;;
10440;SDS011;5268;49.346;9.522;2022-11-20T16:14:48;17.58;;;12.57;;
10440;SDS011;5268;49.346;9.522;2022-11-20T16:20:10;11.95;;;7.63;;
10440;SDS011;5268;49.346;9.522;2022-11-20T16:25:14;7.60;;;5.90;;
10440;SDS011;5268;49.346;9.522;2022-11-20T16:30:16;6.85;;;3.50;;
10440;SDS011;5268;49.346;9.522;2022-11-20T16:35:18;4.63;;;3.00;;
10440;SDS011;5268;49.346;9.522;2022-11-20T16:40:22;5.22;;;2.95;;
10440;SDS011;5268;49.346;9.522;2022-11-20T16:45:24;4.32;;;2.50;;
10440;SDS011;5268;49.346;9.522;2022-11-20T16:50:26;5.10;;;2.28;;
10440;SDS011;5268;49.346;9.522;2022-11-20T16:55:29;3.67;;;1.80;;
10440;SDS011;5268;49.346;9.522;2022-11-20T17:00:31;4.60;;;1.70;;
10440;SDS011;5268;49.346;9.522;2022-11-20T17:05:36;5.20;;;2.13;;
10440;SDS011;5268;49.346;9.522;2022-11-20T17:10:40;4.05;;;1.83;;
10440;SDS011;5268;49.346;9.522;2022-11-20T17:15:42;2.90;;;1.63;;
10440;SDS011;5268;49.346;9.522;2022-11-20T17:20:50;3.63;;;1.85;;
10440;SDS011;5268;49.346;9.522;2022-11-20T17:25:55;3.65;;;2.33;;
10440;SDS011;5268;49.346;9.522;2022-11-20T17:31:03;21.27;;;15.57;;
10440;SDS011;5268;49.346;9.522;2022-11-20T17:36:07;11.25;;;7.78;;
10440;SDS011;5268;49.346;9.522;2022-11-20T17:41:12;4.45;;;2.83;;
10440;SDS011;5268;49.346;9.522;2022-11-20T17:46:16;10.48;;;7.00;;
10440;SDS011;5268;49.346;9.522;2022-11-20T17:51:20;10.73;;;8.05;;
10440;SDS011;5268;49.346;9.522;2022-11-20T17:56:25;5.28;;;3.90;;
10440;SDS011;5268;49.346;9.522;2022-11-20T18:01:48;6.50;;;3.38;;
10440;SDS011;5268;49.346;9.522;2022-11-20T18:06:50;4.07;;;2.42;;
10440;SDS011;5268;49.346;9.522;2022-11-20T18:11:53;2.60;;;1.67;;
10440;SDS011;5268;49.346;9.522;2022-11-20T18:16:56;4.65;;;2.00;;
10440;SDS011;5268;49.346;9.522;2022-11-20T18:21:59;4.40;;;1.95;;
10440;SDS011;5268;49.346;9.522;2022-11-20T18:27:05;2.70;;;1.70;;
10440;SDS011;5268;49.346;9.522;2022-11-20T18:32:09;3.90;;;2.35;;
10440;SDS011;5268;49.346;9.522;2022-11-20T18:37:12;3.38;;;2.17;;
10440;SDS011;5268;49.346;9.522;2022-11-20T18:42:17;3.03;;;2.00;;
10440;SDS011;5268;49.346;9.522;2022-11-20T18:47:36;2.55;;;1.85;;
10440;SDS011;5268;49.346;9.522;2022-11-20T18:52:39;2.95;;;1.80;;
10440;SDS011;5268;49.346;9.522;2022-11-20T18:57:48;3.13;;;1.70;;
10440;SDS011;5268;49.346;9.522;2022-11-20T19:02:54;2.17;;;1.60;;
10440;SDS011;5268;49.346;9.522;2022-11-20T19:08:05;3.97;;;1.60;;
10440;SDS011;5268;49.346;9.522;2022-11-20T19:26:08;17.15;;;10.93;;
10440;SDS011;5268;49.346;9.522;2022-11-20T19:42:43;3.58;;;2.15;;
10440;SDS011;5268;49.346;9.522;2022-11-20T20:53:15;3.55;;;2.13;;
10440;SDS011;5268;49.346;9.522;2022-11-20T20:58:17;3.40;;;2.15;;
10440;SDS011;5268;49.346;9.522;2022-11-20T21:03:20;1.70;;;1.52;;
10440;SDS011;5268;49.346;9.522;2022-11-20T21:08:23;2.13;;;1.50;;
10440;SDS011;5268;49.346;9.522;2022-11-20T21:13:27;1.30;;;1.20;;
10440;SDS011;5268;49.346;9.522;2022-11-20T21:18:30;1.70;;;1.15;;
10440;SDS011;5268;49.346;9.522;2022-11-20T21:23:34;2.10;;;1.20;;
10440;SDS011;5268;49.346;9.522;2022-11-20T21:28:37;1.35;;;1.08;;
10440;SDS011;5268;49.346;9.522;2022-11-20T21:33:40;1.75;;;1.27;;
10440;SDS011;5268;49.346;9.522;2022-11-20T21:38:44;1.60;;;1.17;;
10440;SDS011;5268;49.346;9.522;2022-11-20T21:43:47;1.10;;;1.00;;
10440;SDS011;5268;49.346;9.522;2022-11-20T21:48:51;2.58;;;1.30;;
10440;SDS011;5268;49.346;9.522;2022-11-20T21:53:55;1.88;;;1.20;;
10440;SDS011;5268;49.346;9.522;2022-11-20T21:58:57;3.22;;;1.27;;
10440;SDS011;5268;49.346;9.522;2022-11-20T22:04:00;1.98;;;1.20;;
10440;SDS011;5268;49.346;9.522;2022-11-20T22:09:04;1.90;;;1.50;;
10440;SDS011;5268;49.346;9.522;2022-11-20T22:14:08;2.50;;;1.70;;
10440;SDS011;5268;49.346;9.522;2022-11-20T22:19:23;2.83;;;1.70;;
10440;SDS011;5268;49.346;9.522;2022-11-20T22:24:26;3.10;;;1.70;;
10440;SDS011;5268;49.346;9.522;2022-11-20T22:29:28;3.28;;;1.80;;
